createdAt,value
2022-11-12T00:01:09.202Z,12.04
2022-11-12T00:03:36.590Z,11.97
2022-11-12T00:06:04.310Z,12.02
2022-11-12T00:08:31.762Z,11.97
2022-11-12T00:10:59.407Z,11.95
2022-11-12T00:13:26.876Z,11.92
2022-11-12T00:15:54.329Z,11.93
2022-11-12T00:18:23.137Z,11.91
2022-11-12T00:20:50.610Z,11.89
2022-11-12T00:23:18.023Z,11.78
2022-11-12T00:25:45.379Z,11.87
2022-11-12T00:28:12.868Z,11.73
2022-11-12T00:30:41.763Z,11.62
2022-11-12T00:33:09.341Z,11.62
2022-11-12T00:35:38.100Z,11.89
2022-11-12T00:38:05.533Z,11.84
2022-11-12T00:40:32.935Z,11.80
2022-11-12T00:43:00.337Z,11.65
2022-11-12T00:45:27.792Z,11.75
2022-11-12T00:47:56.666Z,11.70
2022-11-12T00:50:24.936Z,11.62
2022-11-12T00:52:54.075Z,11.72
2022-11-12T00:55:21.646Z,11.66
2022-11-12T00:57:49.171Z,11.36
2022-11-12T01:00:18.300Z,11.25
2022-11-12T01:02:50.784Z,11.49
2022-11-12T01:05:19.441Z,11.54
2022-11-12T01:07:49.368Z,11.46
2022-11-12T01:10:22.015Z,11.51
2022-11-12T01:12:49.428Z,11.58
2022-11-12T01:15:16.998Z,11.31
2022-11-12T01:17:44.417Z,11.35
2022-11-12T01:20:12.184Z,11.38
2022-11-12T01:22:39.580Z,11.40
2022-11-12T01:25:07.749Z,11.46
2022-11-12T01:27:36.450Z,11.50
2022-11-12T01:30:05.485Z,11.53
2022-11-12T01:32:35.733Z,11.38
2022-11-12T01:35:03.199Z,11.38
2022-11-12T01:37:30.671Z,11.39
2022-11-12T01:39:58.088Z,11.43
2022-11-12T01:42:29.288Z,11.51
2022-11-12T01:44:58.057Z,11.51
2022-11-12T01:47:29.026Z,11.47
2022-11-12T01:50:01.277Z,11.36
2022-11-12T01:52:32.875Z,11.51
2022-11-12T01:55:05.907Z,11.55
2022-11-12T01:57:39.086Z,11.61
2022-11-12T02:00:12.220Z,11.52
2022-11-12T02:02:41.024Z,11.48
2022-11-12T02:05:11.730Z,11.57
2022-11-12T02:07:41.870Z,11.54
2022-11-12T02:10:10.735Z,11.31
2022-11-12T02:12:53.104Z,11.44
2022-11-12T02:15:21.914Z,11.22
2022-11-12T02:17:49.380Z,11.43
2022-11-12T02:20:16.834Z,11.50
2022-11-12T02:22:45.551Z,11.32
2022-11-12T02:25:15.611Z,11.36
2022-11-12T02:27:43.877Z,11.33
2022-11-12T02:30:12.234Z,11.35
2022-11-12T02:32:39.623Z,11.39
2022-11-12T02:35:08.226Z,11.33
2022-11-12T02:37:35.647Z,11.31
2022-11-12T02:40:05.023Z,11.21
2022-11-12T02:42:32.413Z,11.29
2022-11-12T02:44:59.946Z,11.25
2022-11-12T02:47:27.404Z,11.49
2022-11-12T02:49:54.946Z,11.57
2022-11-12T02:52:22.403Z,11.38
2022-11-12T02:54:49.781Z,11.12
2022-11-12T02:57:18.582Z,11.12
2022-11-12T02:59:45.989Z,10.80
2022-11-12T03:02:13.532Z,10.93
2022-11-12T03:04:45.460Z,10.81
2022-11-12T03:07:16.922Z,10.63
2022-11-12T03:09:44.432Z,10.52
2022-11-12T03:12:11.827Z,10.69
2022-11-12T03:14:40.683Z,10.38
2022-11-12T03:17:08.159Z,10.48
2022-11-12T03:19:35.590Z,10.56
2022-11-12T03:22:02.997Z,10.54
2022-11-12T03:24:30.436Z,10.49
2022-11-12T03:26:58.666Z,10.49
2022-11-12T03:29:27.134Z,10.63
2022-11-12T03:31:55.858Z,10.68
2022-11-12T03:34:23.328Z,10.59
2022-11-12T03:36:50.836Z,10.39
2022-11-12T03:39:18.236Z,10.34
2022-11-12T03:41:45.690Z,10.36
2022-11-12T03:44:13.125Z,10.37
2022-11-12T03:46:44.128Z,10.44
2022-11-12T03:49:13.298Z,10.33
2022-11-12T03:51:40.678Z,10.46
2022-11-12T03:54:08.503Z,10.37
2022-11-12T03:56:35.915Z,10.48
2022-11-12T03:59:03.404Z,10.24
2022-11-12T04:01:30.970Z,10.52
2022-11-12T04:03:58.748Z,10.41
2022-11-12T04:06:44.970Z,10.29
2022-11-12T04:09:12.554Z,10.31
2022-11-12T04:11:40.083Z,10.45
2022-11-12T04:14:06.769Z,10.26
2022-11-12T04:16:48.186Z,10.42
2022-11-12T04:19:33.010Z,10.33
2022-11-12T04:22:04.162Z,10.40
2022-11-12T04:24:51.548Z,10.31
2022-11-12T04:27:21.179Z,10.10
2022-11-12T04:30:07.737Z,10.36
2022-11-12T04:32:37.246Z,10.25
2022-11-12T04:35:06.768Z,10.22
2022-11-12T04:37:45.203Z,10.17
2022-11-12T04:40:31.387Z,10.30
2022-11-12T04:43:16.194Z,10.20
2022-11-12T04:45:44.893Z,10.23
2022-11-12T04:48:12.259Z,10.37
2022-11-12T04:50:40.093Z,10.24
2022-11-12T04:53:08.882Z,10.21
2022-11-12T04:55:36.272Z,10.22
2022-11-12T04:58:04.842Z,10.30
2022-11-12T05:00:32.823Z,10.18
2022-11-12T05:03:00.354Z,9.87
2022-11-12T05:05:32.623Z,10.02
2022-11-12T05:08:01.375Z,10.13
2022-11-12T05:10:30.600Z,10.02
2022-11-12T05:12:58.387Z,10.03
2022-11-12T05:15:25.954Z,10.07
2022-11-12T05:17:53.618Z,10.15
2022-11-12T05:20:21.009Z,10.09
2022-11-12T05:23:05.137Z,10.19
2022-11-12T05:25:35.706Z,9.96
2022-11-12T05:28:03.113Z,9.92
2022-11-12T05:30:30.544Z,9.92
2022-11-12T05:32:57.968Z,10.07
2022-11-12T05:35:25.379Z,9.86
2022-11-12T05:37:52.775Z,9.69
2022-11-12T05:40:20.187Z,9.75
2022-11-12T05:42:49.020Z,9.74
2022-11-12T05:45:16.382Z,9.85
2022-11-12T05:47:43.792Z,9.96
2022-11-12T05:50:11.699Z,9.73
2022-11-12T05:52:39.099Z,9.92
2022-11-12T05:55:07.561Z,9.87
2022-11-12T05:57:34.961Z,9.64
2022-11-12T06:00:04.426Z,9.65
2022-11-12T06:02:31.821Z,9.49
2022-11-12T06:04:59.241Z,9.60
2022-11-12T06:07:26.646Z,9.62
2022-11-12T06:09:54.069Z,9.78
2022-11-12T06:12:21.497Z,9.81
2022-11-12T06:14:48.896Z,9.77
2022-11-12T06:17:17.903Z,9.61
2022-11-12T06:19:45.342Z,9.68
2022-11-12T06:22:12.735Z,9.84
2022-11-12T06:24:40.134Z,9.67
2022-11-12T06:27:07.613Z,9.70
2022-11-12T06:29:35.495Z,9.44
2022-11-12T06:32:02.943Z,9.81
2022-11-12T06:34:31.664Z,9.69
2022-11-12T06:36:59.114Z,9.75
2022-11-12T06:39:26.546Z,9.72
2022-11-12T06:41:54.825Z,9.69
2022-11-12T06:44:22.603Z,9.75
2022-11-12T06:46:50.056Z,9.67
2022-11-12T06:49:17.505Z,9.81
2022-11-12T06:51:46.359Z,10.09
2022-11-12T06:54:13.919Z,10.21
2022-11-12T06:56:41.302Z,10.16
2022-11-12T06:59:08.864Z,9.96
2022-11-12T07:01:36.363Z,10.09
2022-11-12T07:04:04.084Z,10.13
2022-11-12T07:06:31.565Z,10.02
2022-11-12T07:09:00.358Z,10.08
2022-11-12T07:11:27.778Z,9.94
2022-11-12T07:13:55.175Z,9.96
2022-11-12T07:16:22.723Z,10.23
2022-11-12T07:18:50.744Z,10.47
2022-11-12T07:21:20.551Z,10.60
2022-11-12T07:23:48.482Z,10.37
2022-11-12T07:26:18.687Z,10.30
2022-11-12T07:28:47.033Z,10.33
2022-11-12T07:31:16.412Z,10.29
2022-11-12T07:33:44.275Z,10.26
2022-11-12T07:36:13.262Z,10.52
2022-11-12T07:38:41.971Z,10.55
2022-11-12T07:41:12.288Z,10.79
2022-11-12T07:43:42.495Z,10.82
2022-11-12T07:46:12.208Z,10.73
2022-11-12T07:48:40.437Z,10.78
2022-11-12T07:51:12.385Z,10.93
2022-11-12T07:53:39.779Z,10.85
2022-11-12T07:56:07.787Z,10.88
2022-11-12T07:58:35.697Z,11.02
2022-11-12T08:01:10.433Z,11.03
2022-11-12T08:03:38.173Z,11.17
2022-11-12T08:06:05.938Z,11.17
2022-11-12T08:08:33.353Z,11.24
2022-11-12T08:11:01.001Z,11.31
2022-11-12T08:13:28.420Z,11.19
2022-11-12T08:15:58.075Z,11.38
2022-11-12T08:18:27.101Z,11.25
2022-11-12T08:21:00.281Z,11.25
2022-11-12T08:23:27.718Z,11.48
2022-11-12T08:25:59.411Z,11.47
2022-11-12T08:28:27.579Z,11.65
2022-11-12T08:30:55.394Z,11.82
2022-11-12T08:33:23.151Z,11.92
2022-11-12T08:35:52.021Z,12.05
2022-11-12T08:38:19.409Z,11.97
2022-11-12T08:40:46.833Z,11.97
2022-11-12T08:43:14.235Z,11.99
2022-11-12T08:45:42.772Z,12.03
2022-11-12T08:48:12.455Z,12.10
2022-11-12T08:50:39.871Z,12.18
2022-11-12T08:53:10.719Z,12.20
2022-11-12T08:55:38.510Z,12.35
2022-11-12T08:58:06.683Z,12.64
2022-11-12T09:00:37.325Z,12.61
2022-11-12T09:03:06.409Z,12.77
2022-11-12T09:05:36.213Z,12.78
2022-11-12T09:08:06.390Z,14.95
2022-11-12T09:10:35.439Z,15.19
2022-11-12T09:13:03.239Z,15.18
2022-11-12T09:15:37.358Z,15.52
2022-11-12T09:18:07.623Z,14.82
2022-11-12T09:20:35.165Z,13.96
2022-11-12T09:23:04.250Z,14.69
2022-11-12T09:25:31.674Z,15.80
2022-11-12T09:28:07.051Z,15.93
2022-11-12T09:30:34.468Z,15.62
2022-11-12T09:33:01.872Z,16.90
2022-11-12T09:35:29.251Z,16.13
2022-11-12T09:37:58.341Z,15.84
2022-11-12T09:40:37.918Z,15.73
2022-11-12T09:43:18.158Z,15.10
2022-11-12T09:46:06.283Z,14.64
2022-11-12T09:48:41.051Z,14.45
2022-11-12T09:51:14.404Z,14.60
2022-11-12T09:53:48.634Z,14.46
2022-11-12T09:56:21.424Z,14.41
2022-11-12T09:58:50.553Z,14.53
2022-11-12T10:01:22.152Z,14.10
2022-11-12T10:03:56.759Z,13.73
2022-11-12T10:06:28.768Z,13.85
2022-11-12T10:09:03.159Z,14.04
2022-11-12T10:12:13.530Z,14.10
2022-11-12T10:14:56.496Z,14.38
2022-11-12T10:17:36.520Z,14.00
2022-11-12T10:20:19.302Z,14.12
2022-11-12T10:23:02.307Z,14.22
2022-11-12T10:25:32.846Z,14.40
2022-11-12T10:28:03.623Z,14.43
2022-11-12T10:30:32.540Z,14.18
2022-11-12T10:32:59.988Z,14.39
2022-11-12T10:35:27.409Z,14.08
2022-11-12T10:37:59.817Z,14.37
2022-11-12T10:40:32.511Z,14.68
2022-11-12T10:43:01.715Z,14.80
2022-11-12T10:45:29.510Z,14.72
2022-11-12T10:47:58.430Z,14.38
2022-11-12T10:50:30.558Z,14.66
2022-11-12T10:53:01.239Z,14.80
2022-11-12T10:55:30.386Z,14.82
2022-11-12T10:58:20.916Z,15.07
2022-11-12T11:00:54.797Z,14.44
2022-11-12T11:03:25.356Z,14.29
2022-11-12T11:05:56.045Z,14.89
2022-11-12T11:08:37.710Z,15.09
2022-11-12T11:11:20.304Z,14.50
2022-11-12T11:13:55.270Z,14.65
2022-11-12T11:16:25.122Z,14.80
2022-11-12T11:18:57.268Z,14.78
2022-11-12T11:21:50.347Z,15.16
2022-11-12T11:24:31.679Z,15.13
2022-11-12T11:27:04.405Z,15.28
2022-11-12T11:29:48.762Z,15.32
2022-11-12T11:32:34.591Z,14.73
2022-11-12T11:35:15.702Z,15.16
2022-11-12T11:37:58.293Z,14.72
2022-11-12T11:40:29.956Z,14.97
2022-11-12T11:43:13.691Z,15.09
2022-11-12T11:45:56.576Z,14.45
2022-11-12T11:48:37.885Z,15.00
2022-11-12T11:51:25.755Z,15.27
2022-11-12T11:54:09.054Z,15.20
2022-11-12T11:56:41.573Z,15.18
2022-11-12T11:59:25.178Z,14.83
2022-11-12T12:02:05.371Z,15.05
2022-11-12T12:04:46.088Z,15.34
2022-11-12T12:07:25.173Z,15.52
2022-11-12T12:09:58.164Z,15.59
2022-11-12T12:12:40.335Z,15.47
2022-11-12T12:15:30.326Z,15.61
2022-11-12T12:18:08.436Z,15.71
2022-11-12T12:20:42.931Z,15.63
2022-11-12T12:23:24.066Z,15.66
2022-11-12T12:25:59.936Z,15.61
2022-11-12T12:28:36.259Z,15.46
2022-11-12T12:31:08.428Z,15.66
2022-11-12T12:33:43.542Z,15.18
2022-11-12T12:36:14.806Z,15.29
2022-11-12T12:38:48.906Z,15.58
2022-11-12T12:41:27.625Z,15.51
2022-11-12T12:43:58.374Z,15.60
2022-11-12T12:46:27.859Z,15.65
2022-11-12T12:48:57.386Z,15.24
2022-11-12T12:51:28.431Z,15.24
2022-11-12T12:53:57.249Z,15.46
2022-11-12T12:56:46.882Z,15.44
2022-11-12T12:59:24.942Z,15.46
2022-11-12T13:01:59.174Z,15.52
2022-11-12T13:04:52.687Z,15.56
2022-11-12T13:07:38.877Z,15.35
2022-11-12T13:10:46.783Z,15.52
2022-11-12T13:13:32.961Z,15.62
2022-11-12T13:16:01.993Z,15.32
2022-11-12T13:19:00.199Z,15.51
2022-11-12T13:21:28.545Z,15.58
2022-11-12T13:24:08.352Z,15.31
2022-11-12T13:26:58.993Z,15.50
2022-11-12T13:29:42.565Z,15.43
2022-11-12T13:32:30.519Z,15.52
2022-11-12T13:35:26.616Z,15.55
2022-11-12T13:37:56.314Z,15.17
2022-11-12T13:40:34.292Z,15.48
2022-11-12T13:43:10.862Z,15.49
2022-11-12T13:45:43.444Z,15.56
2022-11-12T13:48:16.079Z,15.64
2022-11-12T13:50:49.212Z,15.53
2022-11-12T13:53:22.861Z,15.55
2022-11-12T13:55:51.235Z,15.34
2022-11-12T13:58:28.929Z,15.39
2022-11-12T14:00:58.455Z,15.50
2022-11-12T14:03:29.395Z,15.48
2022-11-12T14:05:58.046Z,15.52
2022-11-12T14:08:51.027Z,15.57
2022-11-12T14:11:39.404Z,15.41
2022-11-12T14:14:17.691Z,15.44
2022-11-12T14:16:59.321Z,15.46
2022-11-12T14:19:55.640Z,15.31
2022-11-12T14:22:23.245Z,15.50
2022-11-12T14:24:55.799Z,15.44
2022-11-12T14:27:34.960Z,15.35
2022-11-12T14:30:12.789Z,15.36
2022-11-12T14:32:41.626Z,15.39
2022-11-12T14:35:39.916Z,15.39
2022-11-12T14:38:18.763Z,15.19
2022-11-12T14:40:50.477Z,15.15
2022-11-12T14:43:37.590Z,15.11
2022-11-12T14:46:09.019Z,14.98
2022-11-12T14:48:45.129Z,15.09
2022-11-12T14:51:14.933Z,14.92
2022-11-12T14:53:46.951Z,14.88
2022-11-12T14:56:35.170Z,14.94
2022-11-12T14:59:03.361Z,14.92
2022-11-12T15:04:25.038Z,14.94
2022-11-12T15:06:55.153Z,14.93
2022-11-12T15:09:35.181Z,14.83
2022-11-12T15:12:04.219Z,14.86
2022-11-12T15:14:32.050Z,14.72
2022-11-12T15:17:01.272Z,14.59
2022-11-12T15:19:30.054Z,14.54
2022-11-12T15:22:01.138Z,14.55
2022-11-12T15:24:32.072Z,14.51
2022-11-12T15:27:01.706Z,14.51
2022-11-12T15:29:32.823Z,14.38
2022-11-12T15:32:04.866Z,14.30
2022-11-12T15:34:46.501Z,14.30
2022-11-12T15:37:22.858Z,14.45
2022-11-12T15:39:52.060Z,14.29
2022-11-12T15:42:26.697Z,14.23
2022-11-12T15:44:59.521Z,14.21
2022-11-12T15:47:28.741Z,14.14
2022-11-12T15:49:58.721Z,14.14
2022-11-12T15:52:26.568Z,14.12
2022-11-12T15:54:54.289Z,14.13
2022-11-12T15:57:24.266Z,14.07
2022-11-12T16:00:01.675Z,13.87
2022-11-12T16:02:35.239Z,13.81
2022-11-12T16:05:02.671Z,14.05
2022-11-12T16:07:30.149Z,13.91
2022-11-12T16:09:57.528Z,13.95
2022-11-12T16:12:25.254Z,13.93
2022-11-12T16:14:52.732Z,14.00
2022-11-12T16:17:21.011Z,14.07
2022-11-12T16:19:49.707Z,13.92
2022-11-12T16:22:17.073Z,13.93
2022-11-12T16:24:44.559Z,13.94
2022-11-12T16:27:14.519Z,13.97
2022-11-12T16:29:42.471Z,13.87
2022-11-12T16:32:13.796Z,13.53
2022-11-12T16:34:41.178Z,13.53
2022-11-12T16:37:12.923Z,13.55
2022-11-12T16:39:40.425Z,13.65
2022-11-12T16:42:10.175Z,13.61
2022-11-12T16:44:37.558Z,13.46
2022-11-12T16:47:06.279Z,13.61
2022-11-12T16:49:38.427Z,13.56
2022-11-12T16:52:06.716Z,13.67
2022-11-12T16:54:35.424Z,13.74
2022-11-12T16:57:02.859Z,13.52
2022-11-12T16:59:30.282Z,13.37
2022-11-12T17:01:57.638Z,13.54
2022-11-12T17:04:25.506Z,13.32
2022-11-12T17:06:53.029Z,12.96
2022-11-12T17:09:20.499Z,13.05
2022-11-12T17:11:49.286Z,13.35
2022-11-12T17:14:18.332Z,13.42
2022-11-12T17:16:46.351Z,13.60
2022-11-12T17:19:13.908Z,13.42
2022-11-12T17:21:41.323Z,13.23
2022-11-12T17:24:09.335Z,13.33
2022-11-12T17:26:36.751Z,13.36
2022-11-12T17:29:08.225Z,13.41
2022-11-12T17:31:36.448Z,13.61
2022-11-12T17:34:06.272Z,13.40
2022-11-12T17:36:34.696Z,13.40
2022-11-12T17:39:04.558Z,13.26
2022-11-12T17:41:32.076Z,13.14
2022-11-12T17:44:01.315Z,13.45
2022-11-12T17:46:30.455Z,13.30
2022-11-12T17:48:57.876Z,13.22
2022-11-12T17:51:27.601Z,13.16
2022-11-12T17:53:55.026Z,12.92
2022-11-12T17:56:24.267Z,13.01
2022-11-12T17:58:52.075Z,13.00
2022-11-12T18:01:22.365Z,13.07
2022-11-12T18:03:52.951Z,12.97
2022-11-12T18:06:22.839Z,13.19
2022-11-12T18:08:53.689Z,13.00
2022-11-12T18:11:21.267Z,13.07
2022-11-12T18:13:48.776Z,13.29
2022-11-12T18:16:17.949Z,13.11
2022-11-12T18:18:45.827Z,13.13
2022-11-12T18:21:14.884Z,12.85
2022-11-12T18:23:44.573Z,13.21
2022-11-12T18:26:15.085Z,13.09
2022-11-12T18:28:42.537Z,13.17
2022-11-12T18:31:12.700Z,13.24
2022-11-12T18:33:40.210Z,13.06
2022-11-12T18:36:10.992Z,13.18
2022-11-12T18:38:39.698Z,12.92
2022-11-12T18:41:10.145Z,13.06
2022-11-12T18:43:37.849Z,12.85
2022-11-12T18:46:06.265Z,12.75
2022-11-12T18:48:35.320Z,12.69
2022-11-12T18:51:04.463Z,12.66
2022-11-12T18:53:31.878Z,12.67
2022-11-12T18:56:03.826Z,12.45
2022-11-12T18:58:35.078Z,12.46
2022-11-12T19:01:03.745Z,12.42
2022-11-12T19:03:31.258Z,12.40
2022-11-12T19:05:59.206Z,12.30
2022-11-12T19:08:27.419Z,12.12
2022-11-12T19:10:58.482Z,12.29
2022-11-12T19:13:27.888Z,12.28
2022-11-12T19:15:56.445Z,12.23
2022-11-12T19:18:23.869Z,12.24
2022-11-12T19:20:51.332Z,12.09
2022-11-12T19:23:18.793Z,12.27
2022-11-12T19:25:46.163Z,12.18
2022-11-12T19:28:13.599Z,12.14
2022-11-12T19:30:42.515Z,12.24
2022-11-12T19:33:09.881Z,12.21
2022-11-12T19:35:40.218Z,12.28
2022-11-12T19:38:07.738Z,12.22
2022-11-12T19:40:35.197Z,12.28
2022-11-12T19:43:02.630Z,12.35
2022-11-12T19:45:30.259Z,12.35
2022-11-12T19:47:59.094Z,12.40
2022-11-12T19:50:26.487Z,12.33
2022-11-12T19:52:54.126Z,12.33
2022-11-12T19:55:21.708Z,12.35
2022-11-12T19:57:49.303Z,12.32
2022-11-12T20:00:17.761Z,12.34
2022-11-12T20:02:45.175Z,12.46
2022-11-12T20:05:14.088Z,12.53
2022-11-12T20:07:41.582Z,12.62
2022-11-12T20:10:09.837Z,12.71
2022-11-12T20:12:39.961Z,12.84
2022-11-12T20:15:08.786Z,12.81
2022-11-12T20:17:37.126Z,12.79
2022-11-12T20:20:04.932Z,12.81
2022-11-12T20:22:34.301Z,12.82
2022-11-12T20:25:01.759Z,12.86
2022-11-12T20:27:29.194Z,12.82
2022-11-12T20:29:56.798Z,12.77
2022-11-12T20:32:24.320Z,12.76
2022-11-12T20:34:51.683Z,12.90
2022-11-12T20:37:19.396Z,12.86
2022-11-12T20:39:48.372Z,12.95
2022-11-12T20:42:15.842Z,12.84
2022-11-12T20:44:43.287Z,12.86
2022-11-12T20:47:10.760Z,12.79
2022-11-12T20:49:38.155Z,12.86
2022-11-12T20:52:05.899Z,12.63
2022-11-12T20:54:33.341Z,12.41
2022-11-12T20:57:03.245Z,12.66
2022-11-12T20:59:30.643Z,12.58
2022-11-12T21:01:58.741Z,12.56
2022-11-12T21:04:26.253Z,12.46
2022-11-12T21:06:57.712Z,12.44
2022-11-12T21:09:28.447Z,12.27
2022-11-12T21:11:55.825Z,12.22
2022-11-12T21:14:24.578Z,12.12
2022-11-12T21:16:52.160Z,12.96
2022-11-12T21:19:19.597Z,13.27
2022-11-12T21:21:47.136Z,13.49
2022-11-12T21:24:14.533Z,13.16
2022-11-12T21:26:41.947Z,13.24
2022-11-12T21:29:09.532Z,13.16
2022-11-12T21:31:38.242Z,13.37
2022-11-12T21:34:06.951Z,12.43
2022-11-12T21:36:35.538Z,13.17
2022-11-12T21:39:03.664Z,13.37
2022-11-12T21:41:33.024Z,12.86
2022-11-12T21:44:00.467Z,13.29
2022-11-12T21:46:29.816Z,13.37
2022-11-12T21:48:59.197Z,13.65
2022-11-12T21:51:28.351Z,13.52
2022-11-12T21:53:57.216Z,13.07
2022-11-12T21:56:25.550Z,13.55
2022-11-12T21:58:53.768Z,13.60
2022-11-12T22:01:25.113Z,13.63
2022-11-12T22:03:54.871Z,13.50
2022-11-12T22:06:25.568Z,13.29
2022-11-12T22:08:53.946Z,13.41
2022-11-12T22:11:21.918Z,13.21
2022-11-12T22:13:49.775Z,13.59
2022-11-12T22:16:19.300Z,13.16
2022-11-12T22:18:48.886Z,13.22
2022-11-12T22:21:18.831Z,13.31
2022-11-12T22:23:47.705Z,13.41
2022-11-12T22:26:17.496Z,12.90
2022-11-12T22:28:45.112Z,12.51
2022-11-12T22:31:14.574Z,12.51
2022-11-12T22:33:43.272Z,12.19
2022-11-12T22:36:12.811Z,11.99
2022-11-12T22:38:42.068Z,12.16
2022-11-12T22:41:12.267Z,11.97
2022-11-12T22:43:40.196Z,11.90
2022-11-12T22:46:09.005Z,12.01
2022-11-12T22:48:37.989Z,12.00
2022-11-12T22:51:08.264Z,12.18
2022-11-12T22:53:35.740Z,12.27
2022-11-12T22:56:03.993Z,12.13
2022-11-12T22:58:36.690Z,12.18
2022-11-12T23:01:06.461Z,12.12
2022-11-12T23:03:34.463Z,11.98
2022-11-12T23:06:04.308Z,12.24
2022-11-12T23:08:32.463Z,12.30
2022-11-12T23:11:03.572Z,12.28
2022-11-12T23:13:31.015Z,12.29
2022-11-12T23:15:59.935Z,12.46
2022-11-12T23:18:27.587Z,12.63
2022-11-12T23:20:55.551Z,12.69
2022-11-12T23:23:26.242Z,12.64
2022-11-12T23:25:53.647Z,12.73
2022-11-12T23:28:21.169Z,12.72
2022-11-12T23:30:50.093Z,12.77
2022-11-12T23:33:18.898Z,12.86
2022-11-12T23:35:49.170Z,12.78
2022-11-12T23:38:16.598Z,12.79
2022-11-12T23:40:44.077Z,12.82
2022-11-12T23:43:11.564Z,12.73
2022-11-12T23:45:38.948Z,12.78
2022-11-12T23:48:07.066Z,12.83
2022-11-12T23:50:35.830Z,12.79
2022-11-12T23:53:03.242Z,12.88
2022-11-12T23:55:32.823Z,13.01
2022-11-12T23:58:03.795Z,13.06
